首页
METAR-TAF:

METAR-TAF

机场 :

萨格勒布机场

萨格勒布, 克罗地亚

纬度: 45-44N, 经度: 016-04E, 海拔: 106米

当前天气观测

该预报发布于41分钟前的16:30 UTC
风速14节,风向西转西南,在西转西北之间变化
温度 13°C
湿度 58%
气压 1019 hPa
能见度10公里或以上
1500米以下无云,无积雨云

METAR: LDZA 171630Z 25014KT 180V290 CAVOK 13/05 Q1019 TEMPO 25017G27KT

时间: 18:11 (17:11 UTC)

预报

该预报发布于5小时和46分钟前的11:25 UTC
预报有效从17日的 12点(UTC)到 18日的 12点(UTC)
风速15节,风向西南
能见度10公里或以上
1500米以下无云,无积雨云
几率 40% :
短暂存在
从 17日的 12点(UTC)到 17日的 20点(UTC)
风速17节,风向西南,有时为27节阵风
成为
从 17日的 23点(UTC)到 18日的 01点(UTC)
风速4节,风向西南
成为
从 18日的 07点(UTC)到 18日的 09点(UTC)
风速7节,风向东转东北

TAF: LDZA 171125Z 1712/1812 23015KT CAVOK TX17/1713Z TN05/1804Z PROB40 TEMPO 1712/1720 23017G27KT BECMG 1723/1801 23004KT BECMG 1807/1809 06007KT

超过4000个机场的气象观测和天气预报(METAR&TAF报告)。

可查询的气象台以黄色和红色小点在地图上表示。

将鼠标移到小点上方,可查看气象台名称。

然后点击查看天气观测和预报。

如需切换地图:点击带黑十字的绿色按钮放大地图;点击带横线的绿色按钮缩小地图;或者点击绿色箭头查看邻近地区的地图。


METAR-TAF: